Terminal Aerodrome Forecast
Issued by NWS Mobile, AL

Home | Current Version | Previous Version | Text Only | Print | Product List | Glossary On
Versions: 1 2 3 4 5 6 7 8 9 10 11 12 13 14 15 16 17 18 19 20 21 22 23 24 25 26 27 28 29 30
000
FTUS44 KMOB 172336
TAFMOB
TAF
KMOB 172336Z 1800/1824 16007KT P6SM VCSH BKN028 OVC040
     FM180900 18005KT 2SM BR OVC004
      TEMPO 1810/1814 1/4SM FG VV003
     FM181600 23005KT 5SM BR OVC005
     FM181800 22006KT P6SM OVC030=

USA.gov is the U.S. government's official web portal to all federal, state and local government web resources and services.